createdAt,value
2019-03-29T00:00:34.183Z,56.37
2019-03-29T00:03:15.159Z,56.43
2019-03-29T00:05:55.501Z,55.37
2019-03-29T00:08:36.349Z,55.93
2019-03-29T00:11:17.015Z,57.50
2019-03-29T00:13:58.023Z,58.20
2019-03-29T00:16:39.003Z,58.97
2019-03-29T00:19:19.579Z,58.83
2019-03-29T00:22:00.264Z,59.67
2019-03-29T00:24:41.359Z,59.57
2019-03-29T00:27:22.028Z,59.60
2019-03-29T00:30:02.183Z,67.17
2019-03-29T00:32:42.767Z,77.17
2019-03-29T00:35:23.752Z,64.17
2019-03-29T00:38:04.106Z,69.67
2019-03-29T00:40:45.324Z,83.97
2019-03-29T00:43:26.162Z,60.90
2019-03-29T00:46:06.863Z,61.57
2019-03-29T00:48:48.022Z,84.27
2019-03-29T00:51:28.306Z,67.17
2019-03-29T00:54:09.811Z,75.20
2019-03-29T00:56:50.775Z,85.43
2019-03-29T00:59:32.263Z,79.70
2019-03-29T01:02:13.103Z,80.80
2019-03-29T01:04:54.859Z,75.97
2019-03-29T01:07:35.805Z,78.67
2019-03-29T01:10:17.364Z,78.43
2019-03-29T01:12:58.314Z,79.90
2019-03-29T01:15:39.161Z,79.03
2019-03-29T01:18:19.492Z,79.07
2019-03-29T01:21:00.046Z,82.87
2019-03-29T01:23:40.765Z,85.83
2019-03-29T01:26:21.654Z,78.30
2019-03-29T01:29:02.692Z,78.63
2019-03-29T01:31:43.563Z,80.97
2019-03-29T01:34:24.541Z,82.30
2019-03-29T01:37:05.113Z,83.87
2019-03-29T01:39:46.145Z,78.70
2019-03-29T01:42:26.776Z,74.30
2019-03-29T01:45:07.414Z,79.57
2019-03-29T01:47:48.134Z,74.07
2019-03-29T01:50:29.018Z,71.70
2019-03-29T01:53:10.078Z,71.50
2019-03-29T01:55:51.575Z,71.80
2019-03-29T01:58:32.518Z,68.07
2019-03-29T02:01:13.479Z,69.90
2019-03-29T02:03:54.122Z,68.77
2019-03-29T02:06:35.084Z,66.07
2019-03-29T02:09:16.378Z,62.20
2019-03-29T02:11:57.659Z,58.50
2019-03-29T02:14:38.924Z,56.83
2019-03-29T02:17:20.212Z,60.13
2019-03-29T02:20:00.940Z,55.80
2019-03-29T02:22:42.203Z,54.90
2019-03-29T02:25:23.094Z,55.07
2019-03-29T02:28:04.380Z,51.53
2019-03-29T02:30:45.647Z,52.13
2019-03-29T02:33:26.969Z,51.60
2019-03-29T02:36:08.205Z,49.20
2019-03-29T02:38:55.810Z,43.67
2019-03-29T02:41:30.762Z,42.53
2019-03-29T02:44:11.727Z,43.37
2019-03-29T02:46:53.786Z,43.47
2019-03-29T02:49:34.601Z,46.80
2019-03-29T02:52:15.952Z,44.40
2019-03-29T02:54:56.824Z,44.47
2019-03-29T02:57:37.532Z,47.57
2019-03-29T03:00:18.444Z,53.50
2019-03-29T03:02:59.413Z,44.57
2019-03-29T03:05:40.366Z,44.27
2019-03-29T03:08:21.150Z,47.37
2019-03-29T03:11:02.285Z,45.43
2019-03-29T03:13:43.584Z,47.60
2019-03-29T03:16:24.207Z,45.70
2019-03-29T03:19:04.847Z,44.93
2019-03-29T03:21:45.904Z,45.20
2019-03-29T03:24:26.764Z,45.20
2019-03-29T03:27:07.436Z,44.80
2019-03-29T03:29:48.533Z,41.70
2019-03-29T03:32:29.059Z,43.73
2019-03-29T03:35:09.459Z,45.83
2019-03-29T03:37:49.832Z,46.50
2019-03-29T03:40:31.252Z,42.70
2019-03-29T03:43:12.847Z,42.70
2019-03-29T03:45:53.522Z,51.67
2019-03-29T03:48:34.214Z,45.63
2019-03-29T03:51:15.303Z,45.17
2019-03-29T03:53:56.684Z,49.10
2019-03-29T03:56:37.977Z,43.57
2019-03-29T03:59:18.674Z,47.70
2019-03-29T04:01:59.537Z,46.10
2019-03-29T04:04:40.872Z,48.03
2019-03-29T04:07:21.500Z,48.40
2019-03-29T04:10:02.165Z,46.70
2019-03-29T04:12:43.414Z,44.83
2019-03-29T04:15:23.925Z,51.47
2019-03-29T04:18:05.331Z,45.43
2019-03-29T04:20:46.312Z,44.10
2019-03-29T04:23:27.721Z,44.77
2019-03-29T04:26:08.696Z,43.83
2019-03-29T04:29:03.396Z,42.43
2019-03-29T04:31:31.383Z,40.50
2019-03-29T04:34:12.697Z,46.80
2019-03-29T04:36:53.643Z,40.93
2019-03-29T04:39:34.937Z,43.23
2019-03-29T04:42:16.213Z,42.03
2019-03-29T04:44:59.900Z,44.63
2019-03-29T04:47:39.572Z,44.97
2019-03-29T04:50:20.682Z,44.70
2019-03-29T04:59:02.288Z,40.97
2019-03-29T05:01:43.252Z,45.93
2019-03-29T05:04:23.952Z,40.23
2019-03-29T05:07:04.282Z,38.40
2019-03-29T05:09:45.502Z,41.17
2019-03-29T05:12:26.453Z,38.83
2019-03-29T05:15:07.402Z,50.63
2019-03-29T05:17:48.142Z,40.33
2019-03-29T05:20:29.639Z,43.00
2019-03-29T05:23:10.884Z,37.60
2019-03-29T05:25:52.203Z,38.33
2019-03-29T05:28:33.804Z,42.97
2019-03-29T05:31:15.333Z,37.73
2019-03-29T05:33:57.007Z,39.40
2019-03-29T05:36:37.993Z,37.43
2019-03-29T05:39:18.937Z,37.90
2019-03-29T05:42:00.543Z,36.87
2019-03-29T05:44:41.813Z,45.00
2019-03-29T05:47:23.083Z,40.03
2019-03-29T05:50:04.130Z,38.13
2019-03-29T05:52:45.654Z,38.43
2019-03-29T05:55:32.633Z,39.53
2019-03-29T05:58:07.888Z,40.07
2019-03-29T06:00:49.177Z,39.00
2019-03-29T06:03:30.446Z,40.17
2019-03-29T06:06:11.409Z,41.23
2019-03-29T06:08:52.043Z,40.00
2019-03-29T06:11:33.023Z,40.53
2019-03-29T06:14:13.964Z,39.80
2019-03-29T06:16:55.576Z,44.03
2019-03-29T06:19:36.849Z,45.53
2019-03-29T06:22:17.803Z,41.67
2019-03-29T06:24:58.775Z,39.20
2019-03-29T06:27:40.055Z,38.10
2019-03-29T06:30:21.008Z,39.60
2019-03-29T06:33:01.714Z,39.10
2019-03-29T06:35:42.612Z,40.83
2019-03-29T06:38:23.883Z,37.80
2019-03-29T06:41:05.190Z,42.67
2019-03-29T06:43:45.805Z,42.00
2019-03-29T06:46:26.293Z,38.83
2019-03-29T06:49:07.418Z,40.57
2019-03-29T06:51:48.366Z,38.77
2019-03-29T06:54:29.800Z,36.47
2019-03-29T06:57:10.846Z,36.87
2019-03-29T06:59:52.220Z,37.87
2019-03-29T07:02:33.480Z,35.43
2019-03-29T07:05:14.441Z,36.63
2019-03-29T07:07:55.142Z,37.30
2019-03-29T07:10:36.645Z,39.03
2019-03-29T07:13:17.989Z,36.13
2019-03-29T07:15:59.562Z,38.23
2019-03-29T07:18:40.844Z,34.03
2019-03-29T07:21:22.252Z,31.27
2019-03-29T07:24:03.503Z,34.20
2019-03-29T07:26:45.015Z,33.17
2019-03-29T07:29:26.325Z,33.80
2019-03-29T07:32:07.564Z,32.63
2019-03-29T07:34:49.250Z,37.20
2019-03-29T07:37:30.129Z,31.83
2019-03-29T07:40:11.085Z,36.80
2019-03-29T07:42:52.377Z,29.23
2019-03-29T07:45:33.113Z,26.53
2019-03-29T07:48:14.370Z,35.73
2019-03-29T07:50:55.886Z,30.57
2019-03-29T07:53:37.184Z,31.67
2019-03-29T07:56:18.134Z,30.70
2019-03-29T07:58:59.080Z,31.50
2019-03-29T08:01:40.309Z,30.20
2019-03-29T08:04:21.741Z,27.60
2019-03-29T08:07:03.239Z,33.50
2019-03-29T08:09:44.844Z,32.47
2019-03-29T08:12:25.985Z,28.03
2019-03-29T08:15:09.236Z,27.93
2019-03-29T08:17:49.081Z,26.25
2019-03-29T08:20:41.673Z,31.97
2019-03-29T08:23:11.873Z,25.47
2019-03-29T08:25:52.845Z,26.73
2019-03-29T08:28:34.304Z,28.07
2019-03-29T08:31:15.724Z,25.13
2019-03-29T08:33:57.067Z,27.63
2019-03-29T08:36:37.964Z,27.40
2019-03-29T08:39:27.969Z,27.73
2019-03-29T08:42:00.828Z,27.90
2019-03-29T08:44:42.199Z,26.83
2019-03-29T08:47:23.732Z,28.53
2019-03-29T08:50:04.083Z,27.63
2019-03-29T08:52:44.778Z,24.43
2019-03-29T08:55:25.838Z,31.07
2019-03-29T08:58:06.949Z,27.50
2019-03-29T09:00:48.216Z,30.77
2019-03-29T09:03:29.821Z,29.77
2019-03-29T09:06:11.445Z,27.27
2019-03-29T09:08:52.377Z,29.70
2019-03-29T09:11:33.326Z,29.77
2019-03-29T09:14:14.921Z,26.13
2019-03-29T09:16:55.955Z,27.47
2019-03-29T09:19:37.500Z,25.20
2019-03-29T09:22:17.881Z,26.87
2019-03-29T09:24:59.089Z,24.50
2019-03-29T09:27:39.694Z,29.37
2019-03-29T09:30:20.282Z,30.63
2019-03-29T09:33:01.339Z,33.00
2019-03-29T09:35:42.954Z,25.40
2019-03-29T09:38:23.624Z,28.07
2019-03-29T09:41:04.547Z,29.27
2019-03-29T09:43:45.805Z,33.70
2019-03-29T09:46:27.083Z,28.17
2019-03-29T09:49:08.481Z,27.53
2019-03-29T09:51:49.664Z,30.77
2019-03-29T09:54:31.253Z,27.90
2019-03-29T09:57:15.502Z,28.53
2019-03-29T09:59:54.788Z,27.50
2019-03-29T10:02:35.720Z,29.63
2019-03-29T10:05:19.653Z,25.83
2019-03-29T10:07:58.289Z,27.60
2019-03-29T10:10:39.239Z,31.87
2019-03-29T10:13:20.215Z,28.17
2019-03-29T10:16:01.358Z,27.43
2019-03-29T10:18:42.442Z,26.17
2019-03-29T10:21:23.092Z,22.93
2019-03-29T10:24:03.752Z,28.10
2019-03-29T10:26:44.434Z,26.23
2019-03-29T10:29:25.716Z,32.60
2019-03-29T10:32:09.390Z,23.97
2019-03-29T10:34:48.461Z,29.60
2019-03-29T10:37:29.496Z,23.67
2019-03-29T10:40:10.393Z,28.70
2019-03-29T10:42:57.485Z,32.00
2019-03-29T10:45:39.495Z,26.63
2019-03-29T10:48:15.564Z,28.50
2019-03-29T10:50:56.584Z,28.93
2019-03-29T10:53:37.226Z,30.27
2019-03-29T10:56:18.032Z,26.53
2019-03-29T10:58:59.481Z,24.33
2019-03-29T11:01:41.007Z,31.70
2019-03-29T11:04:21.721Z,34.67
2019-03-29T11:07:02.090Z,26.37
2019-03-29T11:09:43.574Z,30.23
2019-03-29T11:12:24.702Z,30.77
2019-03-29T11:15:06.778Z,29.67
2019-03-29T11:17:47.732Z,23.57
2019-03-29T11:20:29.332Z,28.00
2019-03-29T11:23:10.617Z,27.80
2019-03-29T11:25:51.096Z,50.27
2019-03-29T11:28:31.890Z,26.77
2019-03-29T11:31:13.137Z,30.33
2019-03-29T11:33:54.182Z,30.77
2019-03-29T11:36:36.057Z,28.50
2019-03-29T11:39:17.011Z,27.60
2019-03-29T11:41:57.960Z,26.73
2019-03-29T11:44:38.922Z,22.73
2019-03-29T11:47:20.531Z,26.67
2019-03-29T11:50:01.240Z,29.90
2019-03-29T11:52:42.121Z,31.40
2019-03-29T11:55:23.100Z,33.53
2019-03-29T11:58:04.363Z,31.83
2019-03-29T12:00:45.324Z,28.17
2019-03-29T12:03:26.083Z,31.27
2019-03-29T12:06:07.016Z,34.03
2019-03-29T12:08:47.897Z,37.03
2019-03-29T12:11:29.495Z,41.07
2019-03-29T12:14:10.457Z,33.30
2019-03-29T12:16:51.727Z,35.97
2019-03-29T12:19:32.711Z,36.73
2019-03-29T12:22:13.981Z,36.30
2019-03-29T12:24:55.571Z,32.10
2019-03-29T12:27:36.853Z,33.30
2019-03-29T12:30:30.677Z,34.27
2019-03-29T12:32:59.214Z,34.30
2019-03-29T12:35:40.117Z,31.87
2019-03-29T12:38:21.001Z,34.83
2019-03-29T12:41:01.323Z,35.90
2019-03-29T12:43:54.858Z,38.23
2019-03-29T12:46:23.574Z,30.80
2019-03-29T12:49:04.338Z,32.63
2019-03-29T12:51:46.666Z,42.00
2019-03-29T12:54:26.360Z,40.03
2019-03-29T12:57:07.402Z,43.50
2019-03-29T12:59:48.138Z,39.57
2019-03-29T13:02:28.694Z,43.80
2019-03-29T13:05:09.336Z,55.03
2019-03-29T13:07:52.966Z,45.33
2019-03-29T13:10:31.982Z,43.73
2019-03-29T13:13:13.358Z,43.03
2019-03-29T13:15:55.091Z,50.63
2019-03-29T13:18:35.750Z,53.47
2019-03-29T13:21:16.300Z,50.93
2019-03-29T13:23:57.339Z,47.37
2019-03-29T13:26:38.056Z,41.57
2019-03-29T13:29:19.570Z,42.40
2019-03-29T13:31:59.814Z,42.40
2019-03-29T13:34:41.495Z,39.60
2019-03-29T13:37:24.782Z,44.17
2019-03-29T13:40:05.421Z,46.67
2019-03-29T13:42:46.285Z,45.83
2019-03-29T13:45:28.201Z,49.27
2019-03-29T13:48:09.471Z,49.70
2019-03-29T13:50:50.342Z,53.97
2019-03-29T13:53:36.659Z,60.67
2019-03-29T13:56:18.072Z,68.00
2019-03-29T13:58:58.565Z,69.83
2019-03-29T14:01:39.081Z,66.37
2019-03-29T14:04:19.684Z,58.97
2019-03-29T14:07:00.622Z,66.13
2019-03-29T14:09:44.323Z,64.07
2019-03-29T14:12:24.970Z,55.90
2019-03-29T14:15:05.971Z,57.80
2019-03-29T14:17:46.592Z,54.60
2019-03-29T14:20:27.409Z,59.57
2019-03-29T14:23:08.712Z,57.33
2019-03-29T14:25:49.143Z,52.87
2019-03-29T14:28:30.297Z,51.63
2019-03-29T14:31:10.793Z,58.50
2019-03-29T14:33:51.953Z,56.53
2019-03-29T14:36:32.387Z,57.83
2019-03-29T14:39:13.493Z,55.93
2019-03-29T14:41:54.512Z,54.93
2019-03-29T14:44:35.589Z,52.33
2019-03-29T14:47:16.898Z,53.73
2019-03-29T14:49:57.273Z,57.40
2019-03-29T14:52:37.825Z,51.80
2019-03-29T14:55:18.306Z,53.10
2019-03-29T14:57:58.778Z,49.07
2019-03-29T15:00:39.363Z,61.00
2019-03-29T15:03:20.527Z,54.37
2019-03-29T15:06:01.851Z,53.57
2019-03-29T15:08:41.822Z,55.67
2019-03-29T15:11:23.101Z,54.23
2019-03-29T15:14:03.924Z,56.13
2019-03-29T15:16:44.364Z,59.67
2019-03-29T15:19:24.903Z,71.87
2019-03-29T15:22:05.733Z,62.57
2019-03-29T15:24:46.839Z,62.23
2019-03-29T15:27:28.202Z,62.83
2019-03-29T15:30:08.863Z,64.27
2019-03-29T15:32:50.765Z,65.30
2019-03-29T15:35:31.839Z,67.73
2019-03-29T15:38:15.406Z,59.17
2019-03-29T15:40:58.448Z,57.27
2019-03-29T15:43:39.464Z,55.63
2019-03-29T15:46:21.130Z,67.50
2019-03-29T15:49:05.064Z,60.43
2019-03-29T15:51:45.702Z,57.40
2019-03-29T15:54:30.898Z,66.97
2019-03-29T15:57:11.851Z,68.77
2019-03-29T15:59:52.529Z,82.10
2019-03-29T16:02:38.098Z,66.27
2019-03-29T16:05:25.383Z,65.93
2019-03-29T16:08:08.551Z,66.67
2019-03-29T16:10:51.082Z,66.20
2019-03-29T16:13:33.801Z,72.97
2019-03-29T16:16:19.686Z,69.13
2019-03-29T16:19:01.504Z,60.93
2019-03-29T16:21:45.355Z,66.53
2019-03-29T16:24:29.693Z,59.70
2019-03-29T16:27:15.340Z,56.83
2019-03-29T16:29:58.716Z,62.90
2019-03-29T16:32:43.566Z,61.97
2019-03-29T16:35:25.244Z,57.27
2019-03-29T16:38:06.056Z,62.63
2019-03-29T16:40:46.565Z,58.43
2019-03-29T16:43:27.501Z,58.23
2019-03-29T16:46:15.851Z,63.57
2019-03-29T16:48:59.106Z,59.73
2019-03-29T16:51:42.839Z,63.20
2019-03-29T16:54:30.794Z,63.47
2019-03-29T16:59:59.858Z,57.57
2019-03-29T17:02:41.175Z,56.07
2019-03-29T17:05:22.670Z,59.33
2019-03-29T17:08:05.265Z,53.40
2019-03-29T17:13:33.160Z,53.57
2019-03-29T17:16:14.440Z,52.60
2019-03-29T17:18:54.960Z,51.00
2019-03-29T17:21:35.439Z,55.20
2019-03-29T17:26:35.444Z,61.00
2019-03-29T17:29:16.046Z,57.23
2019-03-29T17:31:56.972Z,59.63
2019-03-29T17:34:37.534Z,63.37
2019-03-29T17:37:17.937Z,59.80
2019-03-29T17:39:58.442Z,57.33
2019-03-29T17:42:39.413Z,57.20
2019-03-29T17:45:20.270Z,57.13
2019-03-29T17:48:01.489Z,56.33
2019-03-29T17:50:42.226Z,54.10
2019-03-29T17:53:22.542Z,55.23
2019-03-29T17:56:03.272Z,54.40
2019-03-29T17:58:43.613Z,50.50
2019-03-29T18:01:24.697Z,49.50
2019-03-29T18:04:05.644Z,51.07
2019-03-29T18:06:47.033Z,54.17
2019-03-29T18:09:26.900Z,51.27
2019-03-29T18:12:11.048Z,47.80
2019-03-29T18:14:48.432Z,47.27
2019-03-29T18:17:29.066Z,52.17
2019-03-29T18:20:09.773Z,49.40
2019-03-29T18:22:50.538Z,52.10
2019-03-29T18:25:31.471Z,49.43
2019-03-29T18:28:12.056Z,48.70
2019-03-29T18:30:53.058Z,53.40
2019-03-29T18:33:33.241Z,54.27
2019-03-29T18:36:14.281Z,48.83
2019-03-29T18:38:55.253Z,54.87
2019-03-29T18:41:35.529Z,48.27
2019-03-29T18:44:16.521Z,55.03
2019-03-29T18:46:56.872Z,47.23
2019-03-29T18:49:37.630Z,46.73
2019-03-29T18:52:17.982Z,50.40
2019-03-29T18:54:58.545Z,49.77
2019-03-29T18:57:39.735Z,46.30
2019-03-29T19:00:20.221Z,43.27
2019-03-29T19:03:01.189Z,44.83
2019-03-29T19:05:41.962Z,42.17
2019-03-29T19:08:22.185Z,43.30
2019-03-29T19:11:03.248Z,41.37
2019-03-29T19:13:43.887Z,43.70
2019-03-29T19:16:25.495Z,43.33
2019-03-29T19:19:10.174Z,47.03
2019-03-29T19:21:48.700Z,49.30
2019-03-29T19:24:29.734Z,46.60
2019-03-29T19:27:10.919Z,50.30
2019-03-29T19:29:52.065Z,45.73
2019-03-29T19:32:32.862Z,48.60
2019-03-29T19:35:14.790Z,51.87
2019-03-29T19:37:56.166Z,51.13
2019-03-29T19:40:37.054Z,46.43
2019-03-29T19:43:18.285Z,48.97
2019-03-29T19:45:59.669Z,47.73
2019-03-29T19:48:41.201Z,51.63
2019-03-29T19:51:22.127Z,49.17
2019-03-29T19:54:07.491Z,46.33
2019-03-29T19:56:45.736Z,49.80
2019-03-29T19:59:27.275Z,49.50
2019-03-29T20:02:07.975Z,49.70
2019-03-29T20:04:48.593Z,49.00
2019-03-29T20:07:29.800Z,44.97
2019-03-29T20:10:11.084Z,53.63
2019-03-29T20:12:52.684Z,48.50
2019-03-29T20:15:33.334Z,46.70
2019-03-29T20:18:14.359Z,47.53
2019-03-29T20:20:55.576Z,48.47
2019-03-29T20:23:36.841Z,49.70
2019-03-29T20:26:18.832Z,53.40
2019-03-29T20:29:00.045Z,46.20
2019-03-29T20:31:41.083Z,47.90
2019-03-29T20:34:21.963Z,48.97
2019-03-29T20:37:03.264Z,47.80
2019-03-29T20:39:44.540Z,47.23
2019-03-29T20:42:25.804Z,42.77
2019-03-29T20:45:06.230Z,47.63
2019-03-29T20:47:46.839Z,50.17
2019-03-29T20:50:27.778Z,45.70
2019-03-29T20:53:07.773Z,49.93
2019-03-29T20:55:48.414Z,50.43
2019-03-29T20:58:28.936Z,44.47
2019-03-29T21:01:09.271Z,42.93
2019-03-29T21:03:49.850Z,47.03
2019-03-29T21:06:30.591Z,43.47
2019-03-29T21:09:10.609Z,45.63
2019-03-29T21:11:50.904Z,44.57
2019-03-29T21:14:31.273Z,39.27
2019-03-29T21:17:11.398Z,40.37
2019-03-29T21:19:52.228Z,35.87
2019-03-29T21:22:32.551Z,39.07
2019-03-29T21:25:12.584Z,37.10
2019-03-29T21:27:53.382Z,32.83
2019-03-29T21:30:34.213Z,33.60
2019-03-29T21:33:14.814Z,36.23
2019-03-29T21:35:55.587Z,34.60
2019-03-29T21:38:36.192Z,34.70
2019-03-29T21:41:16.758Z,33.77
2019-03-29T21:43:57.380Z,33.43
2019-03-29T21:46:38.294Z,33.90
2019-03-29T21:49:18.930Z,37.57
2019-03-29T21:51:59.610Z,32.93
2019-03-29T21:54:40.217Z,35.33
2019-03-29T21:57:20.947Z,41.43
2019-03-29T22:00:01.809Z,37.87
2019-03-29T22:02:42.863Z,33.97
2019-03-29T22:05:23.743Z,35.63
2019-03-29T22:08:04.422Z,37.80
2019-03-29T22:10:45.025Z,35.20
2019-03-29T22:13:25.670Z,36.80
2019-03-29T22:16:06.934Z,41.27
2019-03-29T22:18:47.901Z,39.63
2019-03-29T22:21:28.857Z,50.07
2019-03-29T22:24:09.812Z,42.53
2019-03-29T22:26:50.454Z,46.40
2019-03-29T22:29:31.123Z,50.77
2019-03-29T22:32:12.363Z,39.63
2019-03-29T22:34:53.411Z,42.00
2019-03-29T22:37:34.290Z,47.23
2019-03-29T22:40:15.259Z,41.23
2019-03-29T22:42:55.885Z,42.23
2019-03-29T22:45:36.537Z,42.73
2019-03-29T22:48:17.801Z,42.77
2019-03-29T22:50:58.180Z,43.37
2019-03-29T22:53:38.901Z,49.77
2019-03-29T22:56:19.814Z,49.80
2019-03-29T22:59:00.695Z,43.73
2019-03-29T23:01:41.962Z,47.73
2019-03-29T23:04:23.018Z,44.67
2019-03-29T23:07:04.671Z,47.57
2019-03-29T23:09:45.812Z,51.63
2019-03-29T23:12:27.094Z,54.63
2019-03-29T23:15:08.069Z,51.30
2019-03-29T23:17:49.011Z,55.57
2019-03-29T23:20:30.296Z,54.77
2019-03-29T23:23:11.575Z,53.67
2019-03-29T23:25:52.930Z,59.30
2019-03-29T23:28:33.832Z,59.83
2019-03-29T23:31:14.610Z,56.77
2019-03-29T23:33:55.582Z,59.43
2019-03-29T23:36:36.693Z,54.30
2019-03-29T23:39:18.302Z,55.97
2019-03-29T23:41:59.373Z,58.97
2019-03-29T23:44:40.537Z,63.20
2019-03-29T23:47:21.193Z,58.27
2019-03-29T23:50:02.383Z,53.77
2019-03-29T23:52:43.752Z,60.07
2019-03-29T23:55:25.035Z,56.23
2019-03-29T23:58:05.976Z,49.87
